CheckWX is a tool to help pilots better visualize weather data.  It is not intended as a substitute for an official pre-flight weather briefing.

01:28:59 UTC

CYSF METAR
Stony Rapids Airport
Stony Rapids, Canada
Current

29 mins ago

CYSF 200100Z AUTO 06006KT 040V100 9SM FEW065 19/05 A2987 RMK SLP124 DENSITY ALT 1500FT
Observed
Jul-20 @ 01:00 UTC
Wind
  • 060° at 6 KTS
Visibility
9 SM
Flight Rules
VFR
Cloud Levels
  • Few at 6,500' AGL
Temperature
19°C / 66°F
Dewpoint
C / 41°F
Humidity
40%
Altimeter
29.87" Hg
Pressure
1011.52 hPa
Previous

1 hour ago

CYSF 200000Z AUTO 09005KT 030V130 9SM CLR 19/04 A2986 RMK SLP122 DENSITY ALT 1500FT
Observed
Jul-20 @ 00:00 UTC
Wind
  • 090° at 5 KTS
Visibility
9 SM
Flight Rules
VFR
Cloud Levels
  • Clear skies
Temperature
19°C / 66°F
Dewpoint
C / 39°F
Humidity
37%
Altimeter
29.86" Hg
Pressure
1011.22 hPa
Previous

2 hours ago

CYSF 192300Z AUTO 08004KT 050V120 9SM FEW060 19/05 A2985 RMK SLP119 DENSITY ALT 1500FT
Observed
Jul-19 @ 23:00 UTC
Wind
  • 080° at 4 KTS
Visibility
9 SM
Flight Rules
VFR
Cloud Levels
  • Few at 6,000' AGL
Temperature
19°C / 66°F
Dewpoint
C / 41°F
Humidity
40%
Altimeter
29.85" Hg
Pressure
1010.82 hPa